sensor_id;sensor_type;location;lat;lon;timestamp;pressure;altitude;pressure_sealevel;temperature;humidity
57885;BME280;43703;51.060;-0.086;2024-02-04T00:02:17;101308.35;;;10.51;100.00
57885;BME280;43703;51.060;-0.086;2024-02-04T00:04:42;101312.43;;;10.57;100.00
57885;BME280;43703;51.060;-0.086;2024-02-04T00:07:08;101315.44;;;10.51;100.00
57885;BME280;43703;51.060;-0.086;2024-02-04T00:09:34;101320.75;;;10.64;100.00
57885;BME280;43703;51.060;-0.086;2024-02-04T00:11:59;101318.22;;;10.64;100.00
57885;BME280;43703;51.060;-0.086;2024-02-04T00:14:25;101315.06;;;10.65;100.00
57885;BME280;43703;51.060;-0.086;2024-02-04T00:16:51;101318.13;;;10.37;100.00
57885;BME280;43703;51.060;-0.086;2024-02-04T00:19:16;101308.15;;;10.29;100.00
57885;BME280;43703;51.060;-0.086;2024-02-04T00:21:42;101304.39;;;10.13;100.00
57885;BME280;43703;51.060;-0.086;2024-02-04T00:24:08;101303.78;;;10.38;100.00
57885;BME280;43703;51.060;-0.086;2024-02-04T00:26:34;101301.29;;;10.15;100.00
57885;BME280;43703;51.060;-0.086;2024-02-04T00:28:59;101296.20;;;10.31;100.00
57885;BME280;43703;51.060;-0.086;2024-02-04T00:31:25;101295.51;;;10.55;100.00
57885;BME280;43703;51.060;-0.086;2024-02-04T00:33:51;101296.35;;;10.40;100.00
57885;BME280;43703;51.060;-0.086;2024-02-04T00:36:16;101287.05;;;10.45;100.00
57885;BME280;43703;51.060;-0.086;2024-02-04T00:38:42;101292.98;;;10.30;100.00
57885;BME280;43703;51.060;-0.086;2024-02-04T00:41:07;101288.05;;;9.98;100.00
57885;BME280;43703;51.060;-0.086;2024-02-04T00:43:33;101295.18;;;10.24;100.00
57885;BME280;43703;51.060;-0.086;2024-02-04T00:45:58;101286.53;;;10.51;100.00
57885;BME280;43703;51.060;-0.086;2024-02-04T00:48:24;101272.76;;;10.22;100.00
57885;BME280;43703;51.060;-0.086;2024-02-04T00:50:49;101274.60;;;10.18;100.00
57885;BME280;43703;51.060;-0.086;2024-02-04T00:53:15;101281.52;;;10.20;100.00
57885;BME280;43703;51.060;-0.086;2024-02-04T00:55:40;101282.73;;;10.17;100.00
57885;BME280;43703;51.060;-0.086;2024-02-04T00:58:05;101288.02;;;10.08;100.00
57885;BME280;43703;51.060;-0.086;2024-02-04T01:00:31;101276.11;;;10.25;100.00
57885;BME280;43703;51.060;-0.086;2024-02-04T01:02:57;101282.89;;;10.26;100.00
57885;BME280;43703;51.060;-0.086;2024-02-04T01:05:22;101286.66;;;10.57;100.00
57885;BME280;43703;51.060;-0.086;2024-02-04T01:07:49;101286.66;;;10.25;100.00
57885;BME280;43703;51.060;-0.086;2024-02-04T01:10:15;101285.83;;;10.41;100.00
57885;BME280;43703;51.060;-0.086;2024-02-04T01:12:40;101291.81;;;9.94;100.00
57885;BME280;43703;51.060;-0.086;2024-02-04T01:15:06;101295.86;;;10.27;100.00
57885;BME280;43703;51.060;-0.086;2024-02-04T01:17:31;101305.17;;;10.33;100.00
57885;BME280;43703;51.060;-0.086;2024-02-04T01:19:56;101293.37;;;10.23;100.00
57885;BME280;43703;51.060;-0.086;2024-02-04T01:22:22;101286.60;;;10.54;100.00
57885;BME280;43703;51.060;-0.086;2024-02-04T01:24:47;101282.15;;;10.38;100.00
57885;BME280;43703;51.060;-0.086;2024-02-04T01:27:13;101275.18;;;10.42;100.00
57885;BME280;43703;51.060;-0.086;2024-02-04T01:29:38;101285.16;;;10.51;100.00
57885;BME280;43703;51.060;-0.086;2024-02-04T01:32:04;101286.08;;;10.54;100.00
57885;BME280;43703;51.060;-0.086;2024-02-04T01:34:29;101291.19;;;10.05;100.00
57885;BME280;43703;51.060;-0.086;2024-02-04T01:36:54;101292.75;;;10.41;100.00
57885;BME280;43703;51.060;-0.086;2024-02-04T01:39:20;101290.83;;;10.37;100.00
57885;BME280;43703;51.060;-0.086;2024-02-04T01:41:46;101287.33;;;10.36;100.00
57885;BME280;43703;51.060;-0.086;2024-02-04T01:44:12;101295.88;;;10.28;100.00
57885;BME280;43703;51.060;-0.086;2024-02-04T01:46:38;101298.89;;;10.52;100.00
57885;BME280;43703;51.060;-0.086;2024-02-04T01:49:03;101296.61;;;10.41;100.00
57885;BME280;43703;51.060;-0.086;2024-02-04T01:51:28;101288.01;;;10.59;100.00
57885;BME280;43703;51.060;-0.086;2024-02-04T01:53:54;101283.97;;;10.43;100.00
57885;BME280;43703;51.060;-0.086;2024-02-04T01:56:20;101280.29;;;10.59;100.00
57885;BME280;43703;51.060;-0.086;2024-02-04T01:58:46;101269.87;;;10.80;100.00
57885;BME280;43703;51.060;-0.086;2024-02-04T02:01:12;101265.68;;;10.66;100.00
57885;BME280;43703;51.060;-0.086;2024-02-04T02:03:37;101264.93;;;10.52;100.00
57885;BME280;43703;51.060;-0.086;2024-02-04T02:06:03;101264.88;;;10.84;100.00
57885;BME280;43703;51.060;-0.086;2024-02-04T02:08:28;101267.23;;;10.68;100.00
57885;BME280;43703;51.060;-0.086;2024-02-04T02:11:00;101258.86;;;10.73;100.00
57885;BME280;43703;51.060;-0.086;2024-02-04T02:13:23;101249.82;;;10.50;100.00
57885;BME280;43703;51.060;-0.086;2024-02-04T02:15:49;101246.03;;;10.36;100.00
57885;BME280;43703;51.060;-0.086;2024-02-04T02:18:15;101243.67;;;10.22;100.00
57885;BME280;43703;51.060;-0.086;2024-02-04T02:23:07;101252.32;;;10.20;100.00
57885;BME280;43703;51.060;-0.086;2024-02-04T02:25:31;101258.00;;;10.58;100.00
57885;BME280;43703;51.060;-0.086;2024-02-04T02:27:58;101263.90;;;10.85;100.00
57885;BME280;43703;51.060;-0.086;2024-02-04T02:30:19;101262.89;;;10.40;100.00
57885;BME280;43703;51.060;-0.086;2024-02-04T02:32:46;101257.95;;;10.86;100.00
57885;BME280;43703;51.060;-0.086;2024-02-04T02:35:14;101257.57;;;10.51;100.00
57885;BME280;43703;51.060;-0.086;2024-02-04T02:37:44;101254.10;;;10.38;100.00
57885;BME280;43703;51.060;-0.086;2024-02-04T02:40:08;101253.64;;;10.08;100.00
57885;BME280;43703;51.060;-0.086;2024-02-04T02:42:29;101249.17;;;10.07;100.00
57885;BME280;43703;51.060;-0.086;2024-02-04T02:44:54;101254.01;;;10.23;100.00
57885;BME280;43703;51.060;-0.086;2024-02-04T02:47:21;101245.70;;;9.91;100.00
57885;BME280;43703;51.060;-0.086;2024-02-04T02:49:46;101250.25;;;10.43;100.00
57885;BME280;43703;51.060;-0.086;2024-02-04T02:52:11;101258.34;;;10.33;100.00
57885;BME280;43703;51.060;-0.086;2024-02-04T02:54:37;101259.73;;;10.04;100.00
57885;BME280;43703;51.060;-0.086;2024-02-04T02:57:04;101268.77;;;10.10;100.00
57885;BME280;43703;51.060;-0.086;2024-02-04T02:59:29;101265.58;;;10.04;100.00
57885;BME280;43703;51.060;-0.086;2024-02-04T03:01:55;101270.46;;;10.62;100.00
57885;BME280;43703;51.060;-0.086;2024-02-04T03:04:21;101274.33;;;10.34;100.00
57885;BME280;43703;51.060;-0.086;2024-02-04T03:06:46;101270.43;;;10.24;100.00
57885;BME280;43703;51.060;-0.086;2024-02-04T03:09:12;101260.22;;;10.22;100.00
57885;BME280;43703;51.060;-0.086;2024-02-04T03:11:38;101261.32;;;10.47;100.00
57885;BME280;43703;51.060;-0.086;2024-02-04T03:14:03;101253.81;;;10.53;100.00
57885;BME280;43703;51.060;-0.086;2024-02-04T03:16:29;101258.32;;;10.48;100.00
57885;BME280;43703;51.060;-0.086;2024-02-04T03:18:55;101254.09;;;10.68;100.00
57885;BME280;43703;51.060;-0.086;2024-02-04T03:21:21;101256.28;;;10.40;100.00
57885;BME280;43703;51.060;-0.086;2024-02-04T03:23:47;101243.59;;;10.32;100.00
57885;BME280;43703;51.060;-0.086;2024-02-04T03:26:17;101235.20;;;10.52;100.00
57885;BME280;43703;51.060;-0.086;2024-02-04T03:28:38;101224.21;;;10.50;100.00
57885;BME280;43703;51.060;-0.086;2024-02-04T03:31:04;101220.07;;;10.31;100.00
57885;BME280;43703;51.060;-0.086;2024-02-04T03:33:30;101213.52;;;10.33;100.00
57885;BME280;43703;51.060;-0.086;2024-02-04T03:35:56;101215.98;;;10.50;100.00
57885;BME280;43703;51.060;-0.086;2024-02-04T03:38:22;101205.93;;;10.52;100.00
57885;BME280;43703;51.060;-0.086;2024-02-04T03:40:47;101217.69;;;10.68;100.00
57885;BME280;43703;51.060;-0.086;2024-02-04T03:43:13;101220.31;;;10.41;100.00
57885;BME280;43703;51.060;-0.086;2024-02-04T03:45:39;101219.77;;;10.31;100.00
57885;BME280;43703;51.060;-0.086;2024-02-04T03:48:05;101218.45;;;10.25;100.00
57885;BME280;43703;51.060;-0.086;2024-02-04T03:50:30;101217.00;;;10.11;100.00
57885;BME280;43703;51.060;-0.086;2024-02-04T03:52:56;101222.41;;;10.53;100.00
57885;BME280;43703;51.060;-0.086;2024-02-04T03:55:22;101225.51;;;10.44;100.00
57885;BME280;43703;51.060;-0.086;2024-02-04T03:57:48;101226.28;;;10.51;100.00
57885;BME280;43703;51.060;-0.086;2024-02-04T04:00:16;101226.63;;;10.52;100.00
57885;BME280;43703;51.060;-0.086;2024-02-04T04:02:40;101229.58;;;10.21;100.00
57885;BME280;43703;51.060;-0.086;2024-02-04T04:05:07;101226.82;;;10.27;100.00
57885;BME280;43703;51.060;-0.086;2024-02-04T04:07:31;101221.55;;;10.51;100.00
57885;BME280;43703;51.060;-0.086;2024-02-04T04:09:57;101224.16;;;10.60;100.00
57885;BME280;43703;51.060;-0.086;2024-02-04T04:12:23;101228.74;;;10.58;100.00
57885;BME280;43703;51.060;-0.086;2024-02-04T04:14:48;101229.78;;;10.69;100.00
57885;BME280;43703;51.060;-0.086;2024-02-04T04:17:14;101235.56;;;10.41;100.00
57885;BME280;43703;51.060;-0.086;2024-02-04T04:19:40;101241.11;;;10.54;100.00
57885;BME280;43703;51.060;-0.086;2024-02-04T04:22:06;101242.27;;;10.04;100.00
57885;BME280;43703;51.060;-0.086;2024-02-04T04:24:32;101241.59;;;10.06;100.00
57885;BME280;43703;51.060;-0.086;2024-02-04T04:26:57;101243.17;;;10.32;100.00
57885;BME280;43703;51.060;-0.086;2024-02-04T04:29:23;101244.35;;;10.38;100.00
57885;BME280;43703;51.060;-0.086;2024-02-04T04:31:49;101242.34;;;10.06;100.00
57885;BME280;43703;51.060;-0.086;2024-02-04T04:34:15;101236.35;;;10.10;100.00
57885;BME280;43703;51.060;-0.086;2024-02-04T04:36:40;101231.18;;;10.07;100.00
57885;BME280;43703;51.060;-0.086;2024-02-04T04:39:06;101226.88;;;9.99;100.00
57885;BME280;43703;51.060;-0.086;2024-02-04T04:41:32;101222.38;;;10.03;100.00
57885;BME280;43703;51.060;-0.086;2024-02-04T04:43:58;101218.31;;;10.42;100.00
57885;BME280;43703;51.060;-0.086;2024-02-04T04:46:23;101223.29;;;10.57;100.00
57885;BME280;43703;51.060;-0.086;2024-02-04T04:48:49;101214.00;;;10.30;100.00
57885;BME280;43703;51.060;-0.086;2024-02-04T04:51:15;101202.53;;;10.33;100.00
57885;BME280;43703;51.060;-0.086;2024-02-04T04:53:41;101202.85;;;10.38;100.00
57885;BME280;43703;51.060;-0.086;2024-02-04T04:56:07;101205.27;;;10.46;100.00
57885;BME280;43703;51.060;-0.086;2024-02-04T04:58:32;101204.18;;;10.40;100.00
57885;BME280;43703;51.060;-0.086;2024-02-04T05:00:58;101203.39;;;10.46;100.00
57885;BME280;43703;51.060;-0.086;2024-02-04T05:03:23;101201.27;;;10.11;100.00
57885;BME280;43703;51.060;-0.086;2024-02-04T05:05:49;101201.61;;;10.28;100.00
57885;BME280;43703;51.060;-0.086;2024-02-04T05:08:15;101197.24;;;10.46;100.00
57885;BME280;43703;51.060;-0.086;2024-02-04T05:10:41;101200.66;;;10.14;100.00
57885;BME280;43703;51.060;-0.086;2024-02-04T05:13:07;101198.06;;;10.17;100.00
57885;BME280;43703;51.060;-0.086;2024-02-04T05:15:32;101199.92;;;10.00;100.00
57885;BME280;43703;51.060;-0.086;2024-02-04T05:17:58;101195.36;;;10.19;100.00
57885;BME280;43703;51.060;-0.086;2024-02-04T05:20:24;101188.66;;;10.16;100.00
57885;BME280;43703;51.060;-0.086;2024-02-04T05:22:49;101188.38;;;10.36;100.00
57885;BME280;43703;51.060;-0.086;2024-02-04T05:25:15;101185.67;;;10.10;100.00
57885;BME280;43703;51.060;-0.086;2024-02-04T05:27:40;101187.82;;;10.25;100.00
57885;BME280;43703;51.060;-0.086;2024-02-04T05:30:06;101179.91;;;10.10;100.00
57885;BME280;43703;51.060;-0.086;2024-02-04T05:32:31;101183.11;;;9.99;100.00
57885;BME280;43703;51.060;-0.086;2024-02-04T05:34:57;101181.00;;;10.43;100.00
57885;BME280;43703;51.060;-0.086;2024-02-04T05:37:22;101171.49;;;10.00;100.00
57885;BME280;43703;51.060;-0.086;2024-02-04T05:39:48;101167.58;;;9.66;100.00
57885;BME280;43703;51.060;-0.086;2024-02-04T05:42:14;101181.19;;;9.86;100.00
57885;BME280;43703;51.060;-0.086;2024-02-04T05:44:40;101177.45;;;9.82;100.00
57885;BME280;43703;51.060;-0.086;2024-02-04T05:47:06;101179.12;;;9.98;100.00
57885;BME280;43703;51.060;-0.086;2024-02-04T05:49:31;101182.11;;;9.88;100.00
57885;BME280;43703;51.060;-0.086;2024-02-04T05:51:57;101188.50;;;9.88;100.00
57885;BME280;43703;51.060;-0.086;2024-02-04T05:54:23;101184.26;;;9.78;100.00
57885;BME280;43703;51.060;-0.086;2024-02-04T05:56:49;101186.40;;;10.01;100.00
57885;BME280;43703;51.060;-0.086;2024-02-04T05:59:14;101186.75;;;9.69;100.00
57885;BME280;43703;51.060;-0.086;2024-02-04T06:01:40;101180.91;;;9.87;100.00
57885;BME280;43703;51.060;-0.086;2024-02-04T06:04:06;101182.36;;;9.62;100.00
57885;BME280;43703;51.060;-0.086;2024-02-04T06:06:32;101185.04;;;9.75;100.00
57885;BME280;43703;51.060;-0.086;2024-02-04T06:08:58;101190.64;;;10.05;100.00
57885;BME280;43703;51.060;-0.086;2024-02-04T06:11:24;101189.86;;;10.20;100.00
57885;BME280;43703;51.060;-0.086;2024-02-04T06:13:49;101177.70;;;9.89;100.00
57885;BME280;43703;51.060;-0.086;2024-02-04T06:16:15;101186.53;;;9.77;100.00
57885;BME280;43703;51.060;-0.086;2024-02-04T06:18:41;101184.08;;;9.70;100.00
57885;BME280;43703;51.060;-0.086;2024-02-04T06:21:07;101188.17;;;9.58;100.00
57885;BME280;43703;51.060;-0.086;2024-02-04T06:23:35;101194.66;;;9.87;100.00
57885;BME280;43703;51.060;-0.086;2024-02-04T06:25:59;101186.37;;;10.14;100.00
57885;BME280;43703;51.060;-0.086;2024-02-04T06:28:26;101181.89;;;9.90;100.00
57885;BME280;43703;51.060;-0.086;2024-02-04T06:30:50;101185.27;;;9.98;100.00
57885;BME280;43703;51.060;-0.086;2024-02-04T06:33:15;101185.27;;;10.00;100.00
57885;BME280;43703;51.060;-0.086;2024-02-04T06:35:42;101184.80;;;10.18;100.00
57885;BME280;43703;51.060;-0.086;2024-02-04T06:38:07;101182.31;;;9.96;100.00
57885;BME280;43703;51.060;-0.086;2024-02-04T06:40:33;101184.80;;;10.20;100.00
57885;BME280;43703;51.060;-0.086;2024-02-04T06:42:58;101183.67;;;10.27;100.00
57885;BME280;43703;51.060;-0.086;2024-02-04T06:45:24;101185.82;;;9.89;100.00
57885;BME280;43703;51.060;-0.086;2024-02-04T06:47:50;101187.92;;;10.20;100.00
57885;BME280;43703;51.060;-0.086;2024-02-04T06:50:16;101178.79;;;10.23;100.00
57885;BME280;43703;51.060;-0.086;2024-02-04T06:52:43;101177.18;;;10.31;100.00
57885;BME280;43703;51.060;-0.086;2024-02-04T06:55:08;101179.80;;;9.98;100.00
57885;BME280;43703;51.060;-0.086;2024-02-04T06:57:33;101177.69;;;10.10;100.00
57885;BME280;43703;51.060;-0.086;2024-02-04T06:59:59;101172.54;;;9.98;100.00
57885;BME280;43703;51.060;-0.086;2024-02-04T07:02:24;101173.09;;;9.88;100.00
57885;BME280;43703;51.060;-0.086;2024-02-04T07:04:50;101169.71;;;10.21;100.00
57885;BME280;43703;51.060;-0.086;2024-02-04T07:07:16;101176.88;;;10.07;100.00
57885;BME280;43703;51.060;-0.086;2024-02-04T07:09:42;101165.89;;;9.93;100.00
57885;BME280;43703;51.060;-0.086;2024-02-04T07:12:08;101168.49;;;10.40;100.00
57885;BME280;43703;51.060;-0.086;2024-02-04T07:14:33;101169.08;;;10.16;100.00
57885;BME280;43703;51.060;-0.086;2024-02-04T07:16:59;101162.15;;;10.16;100.00
57885;BME280;43703;51.060;-0.086;2024-02-04T07:19:25;101161.76;;;10.30;100.00
57885;BME280;43703;51.060;-0.086;2024-02-04T07:21:50;101166.33;;;9.86;100.00
57885;BME280;43703;51.060;-0.086;2024-02-04T07:24:16;101163.31;;;9.90;100.00
57885;BME280;43703;51.060;-0.086;2024-02-04T07:26:42;101167.52;;;9.87;100.00
57885;BME280;43703;51.060;-0.086;2024-02-04T07:29:08;101169.29;;;9.79;100.00
57885;BME280;43703;51.060;-0.086;2024-02-04T07:31:33;101164.45;;;9.50;100.00
57885;BME280;43703;51.060;-0.086;2024-02-04T07:33:59;101171.07;;;9.99;100.00
57885;BME280;43703;51.060;-0.086;2024-02-04T07:36:25;101165.08;;;9.48;100.00
57885;BME280;43703;51.060;-0.086;2024-02-04T07:38:51;101165.87;;;9.62;100.00
57885;BME280;43703;51.060;-0.086;2024-02-04T07:41:17;101153.60;;;9.68;100.00
57885;BME280;43703;51.060;-0.086;2024-02-04T07:43:42;101152.79;;;10.02;100.00
57885;BME280;43703;51.060;-0.086;2024-02-04T07:46:08;101143.79;;;9.52;100.00
57885;BME280;43703;51.060;-0.086;2024-02-04T07:48:34;101147.80;;;10.18;100.00
57885;BME280;43703;51.060;-0.086;2024-02-04T07:51:00;101144.18;;;9.79;100.00
57885;BME280;43703;51.060;-0.086;2024-02-04T07:53:26;101143.25;;;9.79;100.00
57885;BME280;43703;51.060;-0.086;2024-02-04T07:55:51;101144.14;;;9.70;100.00
57885;BME280;43703;51.060;-0.086;2024-02-04T07:58:17;101137.90;;;9.80;100.00
57885;BME280;43703;51.060;-0.086;2024-02-04T08:00:43;101139.88;;;10.16;100.00
57885;BME280;43703;51.060;-0.086;2024-02-04T08:03:09;101153.08;;;9.85;100.00
57885;BME280;43703;51.060;-0.086;2024-02-04T08:05:34;101157.21;;;10.39;100.00
57885;BME280;43703;51.060;-0.086;2024-02-04T08:08:00;101159.51;;;10.13;100.00
57885;BME280;43703;51.060;-0.086;2024-02-04T08:10:27;101159.52;;;10.25;100.00
57885;BME280;43703;51.060;-0.086;2024-02-04T08:12:52;101163.68;;;10.08;100.00
57885;BME280;43703;51.060;-0.086;2024-02-04T08:15:18;101176.42;;;10.23;100.00
57885;BME280;43703;51.060;-0.086;2024-02-04T08:17:44;101179.43;;;10.29;100.00
57885;BME280;43703;51.060;-0.086;2024-02-04T08:20:10;101181.19;;;10.28;100.00
57885;BME280;43703;51.060;-0.086;2024-02-04T08:22:35;101188.36;;;10.57;100.00
57885;BME280;43703;51.060;-0.086;2024-02-04T08:25:01;101193.84;;;10.20;100.00
57885;BME280;43703;51.060;-0.086;2024-02-04T08:27:27;101195.20;;;10.19;100.00
57885;BME280;43703;51.060;-0.086;2024-02-04T08:29:53;101185.26;;;10.18;100.00
57885;BME280;43703;51.060;-0.086;2024-02-04T08:32:18;101177.84;;;10.56;100.00
57885;BME280;43703;51.060;-0.086;2024-02-04T08:34:44;101179.52;;;10.79;100.00
57885;BME280;43703;51.060;-0.086;2024-02-04T08:37:10;101183.11;;;10.61;100.00
57885;BME280;43703;51.060;-0.086;2024-02-04T08:39:36;101182.93;;;10.55;100.00
57885;BME280;43703;51.060;-0.086;2024-02-04T08:42:01;101180.78;;;10.46;100.00
57885;BME280;43703;51.060;-0.086;2024-02-04T08:44:27;101181.61;;;10.39;100.00
57885;BME280;43703;51.060;-0.086;2024-02-04T08:46:53;101178.44;;;10.42;100.00
57885;BME280;43703;51.060;-0.086;2024-02-04T08:49:19;101176.03;;;10.71;100.00
57885;BME280;43703;51.060;-0.086;2024-02-04T08:51:47;101171.23;;;10.55;100.00
57885;BME280;43703;51.060;-0.086;2024-02-04T08:54:11;101161.58;;;10.63;100.00
57885;BME280;43703;51.060;-0.086;2024-02-04T08:56:36;101161.09;;;10.50;100.00
57885;BME280;43703;51.060;-0.086;2024-02-04T08:59:02;101160.33;;;10.24;100.00
57885;BME280;43703;51.060;-0.086;2024-02-04T09:01:29;101157.80;;;10.18;100.00
57885;BME280;43703;51.060;-0.086;2024-02-04T09:03:53;101153.43;;;10.33;100.00
57885;BME280;43703;51.060;-0.086;2024-02-04T09:06:19;101156.71;;;10.36;100.00
57885;BME280;43703;51.060;-0.086;2024-02-04T09:08:45;101162.75;;;10.41;100.00
57885;BME280;43703;51.060;-0.086;2024-02-04T09:11:10;101166.77;;;10.64;100.00
57885;BME280;43703;51.060;-0.086;2024-02-04T09:13:36;101169.06;;;10.66;100.00
57885;BME280;43703;51.060;-0.086;2024-02-04T09:16:02;101165.98;;;10.83;100.00
57885;BME280;43703;51.060;-0.086;2024-02-04T09:18:28;101165.80;;;10.89;100.00
57885;BME280;43703;51.060;-0.086;2024-02-04T09:20:53;101167.72;;;10.69;100.00
57885;BME280;43703;51.060;-0.086;2024-02-04T09:23:20;101168.44;;;10.76;100.00
57885;BME280;43703;51.060;-0.086;2024-02-04T09:25:44;101162.78;;;10.90;100.00
57885;BME280;43703;51.060;-0.086;2024-02-04T09:28:09;101167.60;;;10.78;100.00
57885;BME280;43703;51.060;-0.086;2024-02-04T09:30:34;101168.61;;;10.61;100.00
57885;BME280;43703;51.060;-0.086;2024-02-04T09:33:00;101176.77;;;10.67;100.00
57885;BME280;43703;51.060;-0.086;2024-02-04T09:35:27;101176.27;;;11.05;100.00
57885;BME280;43703;51.060;-0.086;2024-02-04T09:37:52;101168.39;;;11.15;100.00
57885;BME280;43703;51.060;-0.086;2024-02-04T09:40:17;101166.33;;;11.04;100.00
57885;BME280;43703;51.060;-0.086;2024-02-04T09:42:43;101165.23;;;11.15;100.00
57885;BME280;43703;51.060;-0.086;2024-02-04T09:45:09;101172.79;;;11.25;100.00
57885;BME280;43703;51.060;-0.086;2024-02-04T09:47:35;101174.43;;;11.58;100.00
57885;BME280;43703;51.060;-0.086;2024-02-04T09:50:00;101175.91;;;11.43;100.00
57885;BME280;43703;51.060;-0.086;2024-02-04T09:52:29;101169.89;;;11.16;100.00
57885;BME280;43703;51.060;-0.086;2024-02-04T09:54:59;101168.59;;;11.38;100.00
57885;BME280;43703;51.060;-0.086;2024-02-04T09:57:17;101166.59;;;11.51;100.00
57885;BME280;43703;51.060;-0.086;2024-02-04T09:59:44;101167.95;;;10.98;100.00
57885;BME280;43703;51.060;-0.086;2024-02-04T10:02:08;101174.81;;;11.07;100.00
57885;BME280;43703;51.060;-0.086;2024-02-04T10:04:34;101172.75;;;11.44;100.00
57885;BME280;43703;51.060;-0.086;2024-02-04T10:07:00;101175.63;;;11.54;100.00
57885;BME280;43703;51.060;-0.086;2024-02-04T10:09:25;101172.64;;;11.57;100.00
57885;BME280;43703;51.060;-0.086;2024-02-04T10:11:51;101173.63;;;11.52;100.00
57885;BME280;43703;51.060;-0.086;2024-02-04T10:14:17;101163.24;;;11.53;100.00
57885;BME280;43703;51.060;-0.086;2024-02-04T10:16:42;101172.54;;;11.42;100.00
57885;BME280;43703;51.060;-0.086;2024-02-04T10:19:08;101176.92;;;11.38;100.00
57885;BME280;43703;51.060;-0.086;2024-02-04T10:21:34;101178.16;;;11.62;100.00
57885;BME280;43703;51.060;-0.086;2024-02-04T10:23:59;101176.19;;;11.56;100.00
57885;BME280;43703;51.060;-0.086;2024-02-04T10:26:28;101174.43;;;11.46;100.00
57885;BME280;43703;51.060;-0.086;2024-02-04T10:28:51;101172.67;;;11.80;100.00
57885;BME280;43703;51.060;-0.086;2024-02-04T10:31:16;101175.69;;;11.34;100.00
57885;BME280;43703;51.060;-0.086;2024-02-04T10:33:43;101175.43;;;11.69;100.00
57885;BME280;43703;51.060;-0.086;2024-02-04T10:36:08;101182.07;;;11.46;100.00
57885;BME280;43703;51.060;-0.086;2024-02-04T10:38:34;101187.54;;;11.60;100.00
57885;BME280;43703;51.060;-0.086;2024-02-04T10:41:01;101188.98;;;11.31;100.00
57885;BME280;43703;51.060;-0.086;2024-02-04T10:43:28;101189.85;;;11.74;100.00
57885;BME280;43703;51.060;-0.086;2024-02-04T10:45:55;101186.12;;;11.71;100.00
57885;BME280;43703;51.060;-0.086;2024-02-04T10:48:19;101183.87;;;11.85;100.00
57885;BME280;43703;51.060;-0.086;2024-02-04T10:50:45;101186.36;;;11.79;100.00
57885;BME280;43703;51.060;-0.086;2024-02-04T10:53:11;101191.92;;;11.68;100.00
57885;BME280;43703;51.060;-0.086;2024-02-04T10:55:40;101194.49;;;11.66;100.00
57885;BME280;43703;51.060;-0.086;2024-02-04T10:58:00;101192.69;;;11.84;100.00
57885;BME280;43703;51.060;-0.086;2024-02-04T11:00:26;101196.97;;;11.72;100.00
57885;BME280;43703;51.060;-0.086;2024-02-04T11:02:51;101189.38;;;11.85;100.00
57885;BME280;43703;51.060;-0.086;2024-02-04T11:05:17;101191.55;;;12.00;100.00
57885;BME280;43703;51.060;-0.086;2024-02-04T11:07:43;101189.40;;;12.15;100.00
57885;BME280;43703;51.060;-0.086;2024-02-04T11:10:08;101191.29;;;12.29;100.00
57885;BME280;43703;51.060;-0.086;2024-02-04T11:12:34;101191.89;;;12.23;100.00
57885;BME280;43703;51.060;-0.086;2024-02-04T11:15:02;101197.66;;;12.18;100.00
57885;BME280;43703;51.060;-0.086;2024-02-04T11:17:38;101190.86;;;12.19;100.00
57885;BME280;43703;51.060;-0.086;2024-02-04T11:20:02;101183.84;;;12.42;100.00
57885;BME280;43703;51.060;-0.086;2024-02-04T11:22:27;101186.78;;;12.09;100.00
57885;BME280;43703;51.060;-0.086;2024-02-04T11:27:08;101176.72;;;12.07;100.00
57885;BME280;43703;51.060;-0.086;2024-02-04T11:29:33;101178.38;;;11.91;100.00
57885;BME280;43703;51.060;-0.086;2024-02-04T11:32:03;101175.73;;;12.29;100.00
57885;BME280;43703;51.060;-0.086;2024-02-04T11:34:24;101174.53;;;12.41;100.00
57885;BME280;43703;51.060;-0.086;2024-02-04T11:36:50;101170.68;;;12.54;100.00
57885;BME280;43703;51.060;-0.086;2024-02-04T11:39:18;101154.92;;;12.49;100.00
57885;BME280;43703;51.060;-0.086;2024-02-04T11:41:45;101155.52;;;11.75;100.00
57885;BME280;43703;51.060;-0.086;2024-02-04T11:44:08;101154.88;;;11.68;100.00
57885;BME280;43703;51.060;-0.086;2024-02-04T11:46:33;101152.81;;;12.01;100.00
57885;BME280;43703;51.060;-0.086;2024-02-04T11:48:59;101147.91;;;11.99;100.00
57885;BME280;43703;51.060;-0.086;2024-02-04T11:51:24;101152.40;;;11.80;100.00
57885;BME280;43703;51.060;-0.086;2024-02-04T11:53:51;101146.46;;;11.75;100.00
57885;BME280;43703;51.060;-0.086;2024-02-04T11:56:16;101142.24;;;11.79;100.00
57885;BME280;43703;51.060;-0.086;2024-02-04T11:58:42;101134.02;;;12.03;100.00
57885;BME280;43703;51.060;-0.086;2024-02-04T12:01:10;101131.02;;;12.00;100.00
57885;BME280;43703;51.060;-0.086;2024-02-04T12:03:33;101133.61;;;12.04;100.00
57885;BME280;43703;51.060;-0.086;2024-02-04T12:05:59;101132.89;;;12.25;100.00
57885;BME280;43703;51.060;-0.086;2024-02-04T12:08:25;101135.02;;;12.70;100.00
57885;BME280;43703;51.060;-0.086;2024-02-04T12:10:50;101130.86;;;12.25;100.00
57885;BME280;43703;51.060;-0.086;2024-02-04T12:13:16;101127.81;;;12.14;100.00
57885;BME280;43703;51.060;-0.086;2024-02-04T12:15:42;101130.25;;;12.31;100.00
57885;BME280;43703;51.060;-0.086;2024-02-04T12:18:08;101124.72;;;12.02;100.00
57885;BME280;43703;51.060;-0.086;2024-02-04T12:20:33;101123.30;;;12.51;100.00
57885;BME280;43703;51.060;-0.086;2024-02-04T12:22:59;101121.10;;;12.52;100.00
57885;BME280;43703;51.060;-0.086;2024-02-04T12:25:27;101115.60;;;12.78;100.00
57885;BME280;43703;51.060;-0.086;2024-02-04T12:27:51;101122.05;;;12.57;100.00